createdAt,value
2023-05-03T00:00:42.146Z,58.00
2023-05-03T00:03:08.751Z,57.30
2023-05-03T00:05:35.285Z,56.98
2023-05-03T00:08:01.725Z,57.59
2023-05-03T00:10:28.463Z,59.02
2023-05-03T00:12:54.839Z,58.37
2023-05-03T00:15:21.278Z,58.47
2023-05-03T00:17:47.689Z,59.09
2023-05-03T00:20:14.122Z,57.57
2023-05-03T00:22:40.592Z,57.21
2023-05-03T00:25:06.996Z,58.63
2023-05-03T00:27:33.432Z,59.78
2023-05-03T00:30:00.014Z,60.27
2023-05-03T00:32:27.700Z,58.67
2023-05-03T00:34:56.485Z,57.23
2023-05-03T00:37:22.967Z,57.14
2023-05-03T00:39:49.360Z,56.72
2023-05-03T00:42:15.751Z,57.24
2023-05-03T00:44:42.192Z,56.56
2023-05-03T00:47:08.639Z,56.34
2023-05-03T00:49:35.079Z,56.01
2023-05-03T00:52:01.609Z,56.57
2023-05-03T00:54:28.679Z,55.97
2023-05-03T00:56:55.096Z,55.72
2023-05-03T00:59:21.509Z,57.37
2023-05-03T01:01:47.963Z,58.13
2023-05-03T01:04:14.407Z,56.94
2023-05-03T01:06:40.876Z,57.56
2023-05-03T01:09:07.349Z,57.86
2023-05-03T01:11:33.760Z,57.79
2023-05-03T01:14:00.202Z,56.90
2023-05-03T01:16:26.727Z,55.53
2023-05-03T01:18:53.208Z,55.39
2023-05-03T01:21:19.618Z,55.99
2023-05-03T01:23:46.079Z,54.94
2023-05-03T01:26:12.441Z,54.71
2023-05-03T01:28:38.969Z,54.61
2023-05-03T01:31:05.605Z,55.21
2023-05-03T01:33:32.002Z,55.41
2023-05-03T01:35:58.626Z,54.95
2023-05-03T01:38:25.077Z,54.57
2023-05-03T01:40:51.508Z,55.83
2023-05-03T01:43:17.908Z,56.85
2023-05-03T01:45:44.701Z,56.89
2023-05-03T01:48:11.217Z,56.25
2023-05-03T01:50:37.844Z,56.48
2023-05-03T01:53:04.558Z,57.63
2023-05-03T01:55:31.038Z,57.70
2023-05-03T01:57:57.448Z,56.79
2023-05-03T02:00:23.956Z,55.81
2023-05-03T02:02:50.427Z,55.47
2023-05-03T02:05:16.868Z,56.71
2023-05-03T02:07:43.316Z,55.97
2023-05-03T02:10:09.743Z,55.80
2023-05-03T02:12:36.164Z,54.81
2023-05-03T02:15:02.651Z,54.82
2023-05-03T02:17:29.191Z,55.47
2023-05-03T02:19:55.617Z,54.85
2023-05-03T02:22:22.122Z,54.80
2023-05-03T02:24:49.818Z,55.88
2023-05-03T02:27:16.258Z,56.12
2023-05-03T02:29:42.642Z,55.35
2023-05-03T02:32:09.022Z,56.32
2023-05-03T02:34:35.462Z,56.57
2023-05-03T02:37:02.158Z,55.69
2023-05-03T02:39:28.562Z,56.15
2023-05-03T02:41:55.024Z,54.90
2023-05-03T02:44:21.528Z,56.80
2023-05-03T02:46:48.005Z,56.19
2023-05-03T02:49:14.595Z,55.20
2023-05-03T02:51:41.078Z,55.56
2023-05-03T02:54:07.489Z,54.98
2023-05-03T02:56:33.873Z,54.01
2023-05-03T02:59:00.385Z,54.03
2023-05-03T03:01:26.920Z,55.16
2023-05-03T03:03:53.508Z,54.95
2023-05-03T03:06:22.413Z,55.89
2023-05-03T03:08:48.895Z,54.69
2023-05-03T03:11:15.394Z,54.14
2023-05-03T03:13:41.978Z,54.22
2023-05-03T03:16:08.623Z,55.52
2023-05-03T03:18:35.083Z,54.55
2023-05-03T03:21:01.698Z,54.47
2023-05-03T03:23:28.031Z,54.83
2023-05-03T03:25:54.477Z,55.30
2023-05-03T03:28:20.935Z,55.20
2023-05-03T03:30:47.346Z,55.06
2023-05-03T03:33:13.899Z,55.95
2023-05-03T03:35:40.337Z,55.98
2023-05-03T03:38:06.891Z,55.96
2023-05-03T03:40:33.301Z,55.33
2023-05-03T03:42:59.768Z,56.15
2023-05-03T03:45:26.268Z,56.65
2023-05-03T03:47:53.655Z,57.27
2023-05-03T03:50:20.324Z,55.56
2023-05-03T03:52:46.767Z,55.87
2023-05-03T03:55:13.878Z,56.14
2023-05-03T03:57:40.331Z,55.39
2023-05-03T04:00:06.781Z,55.75
2023-05-03T04:02:33.444Z,55.03
2023-05-03T04:05:00.010Z,57.38
2023-05-03T04:07:26.577Z,56.11
2023-05-03T04:09:53.111Z,56.37
2023-05-03T04:12:19.722Z,56.36
2023-05-03T04:14:46.119Z,56.12
2023-05-03T04:17:12.783Z,56.78
2023-05-03T04:19:39.278Z,56.02
2023-05-03T04:22:05.681Z,57.58
2023-05-03T04:24:32.108Z,57.40
2023-05-03T04:26:58.659Z,56.88
2023-05-03T04:29:25.040Z,58.64
2023-05-03T04:31:51.503Z,57.53
2023-05-03T04:34:17.910Z,56.43
2023-05-03T04:36:44.331Z,55.21
2023-05-03T04:39:11.042Z,54.65
2023-05-03T04:41:37.458Z,55.69
2023-05-03T04:44:03.888Z,56.11
2023-05-03T04:46:30.474Z,56.00
2023-05-03T04:48:56.868Z,56.39
2023-05-03T04:51:23.464Z,59.22
2023-05-03T04:53:50.031Z,58.55
2023-05-03T04:56:16.701Z,57.70
2023-05-03T04:58:43.116Z,55.90
2023-05-03T05:01:09.540Z,55.57
2023-05-03T05:03:36.133Z,56.54
2023-05-03T05:06:02.620Z,57.07
2023-05-03T05:08:31.096Z,58.66
2023-05-03T05:10:58.181Z,59.98
2023-05-03T05:13:24.848Z,59.99
2023-05-03T05:15:51.308Z,57.49
2023-05-03T05:18:18.801Z,57.39
2023-05-03T05:20:45.761Z,56.39
2023-05-03T05:23:12.204Z,56.67
2023-05-03T05:25:38.753Z,55.73
2023-05-03T05:28:07.844Z,56.29
2023-05-03T05:30:34.522Z,57.81
2023-05-03T05:33:01.298Z,56.03
2023-05-03T05:35:27.970Z,56.06
2023-05-03T05:37:54.517Z,58.74
2023-05-03T05:40:21.039Z,57.54
2023-05-03T05:42:47.506Z,56.81
2023-05-03T05:45:13.924Z,57.47
2023-05-03T05:47:40.392Z,57.53
2023-05-03T05:50:16.965Z,55.88
2023-05-03T05:52:44.850Z,57.48
2023-05-03T05:55:11.296Z,56.65
2023-05-03T05:57:37.768Z,57.00
2023-05-03T06:00:04.536Z,55.16
2023-05-03T06:02:31.308Z,54.05
2023-05-03T06:04:58.276Z,53.84
2023-05-03T06:07:24.732Z,53.25
2023-05-03T06:09:51.476Z,53.78
2023-05-03T06:12:19.986Z,52.11
2023-05-03T06:15:01.008Z,53.32
2023-05-03T06:17:28.302Z,53.10
2023-05-03T06:19:54.760Z,51.82
2023-05-03T06:22:21.233Z,52.29
2023-05-03T06:24:47.723Z,53.60
2023-05-03T06:27:14.155Z,53.55
2023-05-03T06:29:40.771Z,53.93
2023-05-03T06:32:07.167Z,53.93
2023-05-03T06:34:33.548Z,54.62
2023-05-03T06:37:00.211Z,54.84
2023-05-03T06:39:26.643Z,54.98
2023-05-03T06:41:53.026Z,53.51
2023-05-03T06:44:19.463Z,53.01
2023-05-03T06:46:46.368Z,52.51
2023-05-03T06:49:12.841Z,53.42
2023-05-03T06:51:39.441Z,54.24
2023-05-03T06:54:05.850Z,53.81
2023-05-03T06:56:32.257Z,54.30
2023-05-03T06:58:58.747Z,53.37
2023-05-03T07:01:25.218Z,54.62
2023-05-03T07:03:51.802Z,53.48
2023-05-03T07:06:18.474Z,54.19
2023-05-03T07:08:44.965Z,53.39
2023-05-03T07:11:11.403Z,51.17
2023-05-03T07:13:37.943Z,53.31
2023-05-03T07:16:06.355Z,53.59
2023-05-03T07:18:35.240Z,51.72
2023-05-03T07:21:01.695Z,51.98
2023-05-03T07:23:28.148Z,52.31
2023-05-03T07:25:55.831Z,52.60
2023-05-03T07:28:22.476Z,52.81
2023-05-03T07:30:48.917Z,52.91
2023-05-03T07:33:15.735Z,51.59
2023-05-03T07:35:42.541Z,52.13
2023-05-03T07:38:09.134Z,51.05
2023-05-03T07:40:35.806Z,49.82
2023-05-03T07:43:04.723Z,49.35
2023-05-03T07:45:31.350Z,50.98
2023-05-03T07:47:57.936Z,51.02
2023-05-03T07:50:24.544Z,50.43
2023-05-03T07:52:51.893Z,50.42
2023-05-03T07:55:18.340Z,49.94
2023-05-03T07:57:44.893Z,50.26
2023-05-03T08:00:13.089Z,50.18
2023-05-03T08:02:40.012Z,50.30
2023-05-03T08:05:17.014Z,48.98
2023-05-03T08:07:43.651Z,47.80
2023-05-03T08:10:10.131Z,46.36
2023-05-03T08:12:36.697Z,47.87
2023-05-03T08:15:03.316Z,47.23
2023-05-03T08:17:33.473Z,46.44
2023-05-03T08:19:59.999Z,45.77
2023-05-03T08:22:26.478Z,45.83
2023-05-03T08:24:52.915Z,46.58
2023-05-03T08:27:19.692Z,46.38
2023-05-03T08:29:47.259Z,46.69
2023-05-03T08:32:14.137Z,45.94
2023-05-03T08:34:40.560Z,45.61
2023-05-03T08:37:06.995Z,46.52
2023-05-03T08:39:33.431Z,45.28
2023-05-03T08:41:59.844Z,46.08
2023-05-03T08:44:26.386Z,46.82
2023-05-03T08:46:52.943Z,47.86
2023-05-03T08:49:19.679Z,47.72
2023-05-03T08:51:46.209Z,46.86
2023-05-03T08:54:12.735Z,45.39
2023-05-03T08:56:39.181Z,45.93
2023-05-03T08:59:06.101Z,46.00
2023-05-03T09:01:32.684Z,46.53
2023-05-03T09:03:59.383Z,45.91
2023-05-03T09:06:25.998Z,45.99
2023-05-03T09:08:52.496Z,45.41
2023-05-03T09:11:20.075Z,45.02
2023-05-03T09:13:47.268Z,43.49
2023-05-03T09:16:13.688Z,42.89
2023-05-03T09:18:40.249Z,44.11
2023-05-03T09:21:06.742Z,43.43
2023-05-03T09:23:33.210Z,43.57
2023-05-03T09:25:59.664Z,44.23
2023-05-03T09:28:26.126Z,44.52
2023-05-03T09:30:54.896Z,43.64
2023-05-03T09:33:21.358Z,43.97
2023-05-03T09:35:47.839Z,45.04
2023-05-03T09:38:14.359Z,44.70
2023-05-03T09:40:41.155Z,44.75
2023-05-03T09:43:07.626Z,42.82
2023-05-03T09:45:34.194Z,43.67
2023-05-03T09:48:01.083Z,42.09
2023-05-03T09:50:31.793Z,39.86
2023-05-03T09:52:58.270Z,39.55
2023-05-03T09:55:24.674Z,39.96
2023-05-03T09:57:53.246Z,40.10
2023-05-03T10:00:20.296Z,39.04
2023-05-03T10:02:46.831Z,39.66
2023-05-03T10:05:13.341Z,41.20
2023-05-03T10:07:39.814Z,40.39
2023-05-03T10:10:06.274Z,39.96
2023-05-03T10:12:32.657Z,38.84
2023-05-03T10:14:59.102Z,38.16
2023-05-03T10:17:32.338Z,38.52
2023-05-03T10:20:11.868Z,38.98
2023-05-03T10:22:40.590Z,39.89
2023-05-03T10:25:06.979Z,38.94
2023-05-03T10:27:33.498Z,38.11
2023-05-03T10:29:59.921Z,38.63
2023-05-03T10:32:26.691Z,37.51
2023-05-03T10:34:53.297Z,38.65
2023-05-03T10:37:19.728Z,38.63
2023-05-03T10:39:46.943Z,39.34
2023-05-03T10:42:13.426Z,41.16
2023-05-03T10:44:39.962Z,40.62
2023-05-03T10:47:06.407Z,39.27
2023-05-03T10:49:32.900Z,39.86
2023-05-03T10:51:59.352Z,39.47
2023-05-03T10:54:25.790Z,38.03
2023-05-03T10:56:52.330Z,39.42
2023-05-03T10:59:18.919Z,37.93
2023-05-03T11:01:45.424Z,37.71
2023-05-03T11:04:11.932Z,37.59
2023-05-03T11:06:38.533Z,36.79
2023-05-03T11:09:05.084Z,36.89
2023-05-03T11:11:31.502Z,35.52
2023-05-03T11:13:58.162Z,36.93
2023-05-03T11:16:24.735Z,36.63
2023-05-03T11:18:51.227Z,36.63
2023-05-03T11:21:17.578Z,36.11
2023-05-03T11:23:44.225Z,37.41
2023-05-03T11:26:10.752Z,38.58
2023-05-03T11:28:37.243Z,38.70
2023-05-03T11:31:03.687Z,38.25
2023-05-03T11:33:30.261Z,37.99
2023-05-03T11:35:56.879Z,36.51
2023-05-03T11:38:23.316Z,35.75
2023-05-03T11:40:49.961Z,35.44
2023-05-03T11:43:16.434Z,35.77
2023-05-03T11:45:42.946Z,37.64
2023-05-03T11:48:09.787Z,36.06
2023-05-03T11:50:36.274Z,36.19
2023-05-03T11:53:02.676Z,37.00
2023-05-03T11:55:29.183Z,36.69
2023-05-03T11:57:56.042Z,36.45
2023-05-03T12:00:22.555Z,37.27
2023-05-03T12:02:49.271Z,37.01
2023-05-03T12:05:16.603Z,36.48
2023-05-03T12:07:44.615Z,37.15
2023-05-03T12:10:16.900Z,36.48
2023-05-03T12:12:49.549Z,36.93
2023-05-03T12:15:19.339Z,37.00
2023-05-03T12:17:49.803Z,37.99
2023-05-03T12:22:46.473Z,37.22
2023-05-03T12:25:15.955Z,37.58
2023-05-03T12:27:45.431Z,37.93
2023-05-03T12:30:17.564Z,37.56
2023-05-03T12:32:44.653Z,37.21
2023-05-03T12:35:14.165Z,37.99
2023-05-03T12:37:43.479Z,37.82
2023-05-03T12:42:45.158Z,37.08
2023-05-03T12:45:12.532Z,37.93
2023-05-03T12:47:43.851Z,38.33
2023-05-03T12:50:12.616Z,40.21
2023-05-03T12:52:39.717Z,39.73
2023-05-03T12:55:10.385Z,38.90
2023-05-03T12:57:38.242Z,38.94
2023-05-03T13:00:05.011Z,38.63
2023-05-03T13:05:01.841Z,39.84
2023-05-03T13:07:30.530Z,40.02
2023-05-03T13:12:27.406Z,41.03
2023-05-03T13:14:53.877Z,40.71
2023-05-03T13:17:20.413Z,40.51
2023-05-03T13:19:46.790Z,40.03
2023-05-03T13:22:13.349Z,40.20
2023-05-03T13:24:40.066Z,39.90
2023-05-03T13:27:06.549Z,39.06
2023-05-03T13:29:32.976Z,38.48
2023-05-03T13:31:59.537Z,37.88
2023-05-03T13:34:26.062Z,37.80
2023-05-03T13:36:52.446Z,37.50
2023-05-03T13:39:18.835Z,37.33
2023-05-03T13:41:46.405Z,37.69
2023-05-03T13:44:14.613Z,38.04
2023-05-03T13:46:41.413Z,37.66
2023-05-03T13:49:08.199Z,38.18
2023-05-03T13:51:34.738Z,37.34
2023-05-03T13:54:01.105Z,37.66
2023-05-03T13:56:27.542Z,37.51
2023-05-03T13:58:53.940Z,37.42
2023-05-03T14:01:20.546Z,38.11
2023-05-03T14:03:47.238Z,38.72
2023-05-03T14:06:13.775Z,37.95
2023-05-03T14:08:40.257Z,38.36
2023-05-03T14:11:06.877Z,38.28
2023-05-03T14:13:43.557Z,38.08
2023-05-03T14:16:17.547Z,38.37
2023-05-03T14:18:48.733Z,39.01
2023-05-03T14:21:15.130Z,39.99
2023-05-03T14:23:41.560Z,39.29
2023-05-03T14:26:07.979Z,37.75
2023-05-03T14:28:34.367Z,38.67
2023-05-03T14:31:01.162Z,38.11
2023-05-03T14:33:27.975Z,38.15
2023-05-03T14:35:56.312Z,38.42
2023-05-03T14:38:23.341Z,37.73
2023-05-03T14:40:49.775Z,37.58
2023-05-03T14:43:16.334Z,38.18
2023-05-03T14:45:42.949Z,37.74
2023-05-03T14:48:11.469Z,37.82
2023-05-03T14:50:38.034Z,37.85
2023-05-03T14:53:04.476Z,38.52
2023-05-03T14:55:30.910Z,38.30
2023-05-03T14:57:57.676Z,37.88
2023-05-03T15:00:24.396Z,37.95
2023-05-03T15:02:51.378Z,37.72
2023-05-03T15:05:17.862Z,37.56
2023-05-03T15:07:44.226Z,38.73
2023-05-03T15:10:10.670Z,38.86
2023-05-03T15:12:37.133Z,38.73
2023-05-03T15:15:03.618Z,38.38
2023-05-03T15:17:30.145Z,37.76
2023-05-03T15:19:56.561Z,37.31
2023-05-03T15:22:23.037Z,37.90
2023-05-03T15:24:49.432Z,37.64
2023-05-03T15:27:16.051Z,38.20
2023-05-03T15:29:42.472Z,38.19
2023-05-03T15:32:08.904Z,37.27
2023-05-03T15:34:35.320Z,37.07
2023-05-03T15:37:01.946Z,37.35
2023-05-03T15:39:29.271Z,36.71
2023-05-03T15:41:58.101Z,37.24
2023-05-03T15:44:27.413Z,36.53
2023-05-03T15:46:53.813Z,36.84
2023-05-03T15:49:20.637Z,36.65
2023-05-03T15:51:47.073Z,36.73
2023-05-03T15:54:13.577Z,36.60
2023-05-03T15:56:42.571Z,36.64
2023-05-03T15:59:09.295Z,36.34
2023-05-03T16:01:36.136Z,36.99
2023-05-03T16:04:02.609Z,36.89
2023-05-03T16:06:29.248Z,36.73
2023-05-03T16:08:55.677Z,36.81
2023-05-03T16:11:22.296Z,36.82
2023-05-03T16:13:48.722Z,36.98
2023-05-03T16:16:15.474Z,36.17
2023-05-03T16:18:42.244Z,37.06
2023-05-03T16:21:08.823Z,37.07
2023-05-03T16:23:35.219Z,36.81
2023-05-03T16:26:03.324Z,37.41
2023-05-03T16:28:29.840Z,37.81
2023-05-03T16:30:56.211Z,37.66
2023-05-03T16:33:22.650Z,36.86
2023-05-03T16:35:49.057Z,36.52
2023-05-03T16:38:15.530Z,35.59
2023-05-03T16:40:41.960Z,36.40
2023-05-03T16:43:08.369Z,36.69
2023-05-03T16:45:34.930Z,36.32
2023-05-03T16:48:04.385Z,35.71
2023-05-03T16:50:32.094Z,35.67
2023-05-03T16:52:58.537Z,35.29
2023-05-03T16:55:24.967Z,35.43
2023-05-03T16:57:51.497Z,34.71
2023-05-03T17:00:17.953Z,35.38
2023-05-03T17:02:44.462Z,35.59
2023-05-03T17:05:11.000Z,35.29
2023-05-03T17:07:37.971Z,35.46
2023-05-03T17:10:04.534Z,35.52
2023-05-03T17:12:31.265Z,35.42
2023-05-03T17:14:58.782Z,35.75
2023-05-03T17:17:25.205Z,35.12
2023-05-03T17:19:51.622Z,36.16
2023-05-03T17:22:18.064Z,35.71
2023-05-03T17:24:44.467Z,35.37
2023-05-03T17:27:10.885Z,35.82
2023-05-03T17:29:37.408Z,34.85
2023-05-03T17:32:04.045Z,35.30
2023-05-03T17:34:30.852Z,34.91
2023-05-03T17:36:57.696Z,34.53
2023-05-03T17:39:24.164Z,35.13
2023-05-03T17:41:50.527Z,35.48
2023-05-03T17:44:16.937Z,34.84
2023-05-03T17:46:43.908Z,35.74
2023-05-03T17:49:10.436Z,35.92
2023-05-03T17:51:36.853Z,35.59
2023-05-03T17:54:03.266Z,35.61
2023-05-03T17:56:29.824Z,35.88
2023-05-03T17:58:56.248Z,35.86
2023-05-03T18:01:22.765Z,36.29
2023-05-03T18:03:49.409Z,36.63
2023-05-03T18:06:15.944Z,36.31
2023-05-03T18:08:43.867Z,36.91
2023-05-03T18:11:10.441Z,36.12
2023-05-03T18:13:36.915Z,37.33
2023-05-03T18:16:03.788Z,37.51
2023-05-03T18:18:31.382Z,37.70
2023-05-03T18:20:58.232Z,37.76
2023-05-03T18:23:25.044Z,38.41
2023-05-03T18:25:51.481Z,38.57
2023-05-03T18:28:17.907Z,38.33
2023-05-03T18:30:45.363Z,38.23
2023-05-03T18:33:12.070Z,38.64
2023-05-03T18:35:38.964Z,39.13
2023-05-03T18:38:05.544Z,38.96
2023-05-03T18:40:32.080Z,39.33
2023-05-03T18:42:59.985Z,38.54
2023-05-03T18:45:27.155Z,39.47
2023-05-03T18:47:54.668Z,39.78
2023-05-03T18:50:21.844Z,40.35
2023-05-03T18:52:49.336Z,40.11
2023-05-03T18:55:16.695Z,39.98
2023-05-03T18:57:43.251Z,40.11
2023-05-03T19:00:10.399Z,40.37
2023-05-03T19:02:37.401Z,40.61
2023-05-03T19:05:04.367Z,40.34
2023-05-03T19:07:31.339Z,40.68
2023-05-03T19:09:59.645Z,40.18
2023-05-03T19:12:26.588Z,40.35
2023-05-03T19:14:53.821Z,39.66
2023-05-03T19:17:20.816Z,40.54
2023-05-03T19:19:47.648Z,39.81
2023-05-03T19:22:14.698Z,40.26
2023-05-03T19:24:41.790Z,40.25
2023-05-03T19:27:08.873Z,40.25
2023-05-03T19:29:35.780Z,40.52
2023-05-03T19:32:02.425Z,41.43
2023-05-03T19:34:29.521Z,41.85
2023-05-03T19:36:56.507Z,41.60
2023-05-03T19:39:23.067Z,41.21
2023-05-03T19:41:49.952Z,41.14
2023-05-03T19:44:16.748Z,40.92
2023-05-03T19:46:43.855Z,41.30
2023-05-03T19:49:11.667Z,41.54
2023-05-03T19:51:38.572Z,41.72
2023-05-03T19:54:05.123Z,41.33
2023-05-03T19:56:31.947Z,41.54
2023-05-03T19:58:58.408Z,41.37
2023-05-03T20:01:24.956Z,41.40
2023-05-03T20:03:51.801Z,41.70
2023-05-03T20:06:18.829Z,41.50
2023-05-03T20:08:46.380Z,41.29
2023-05-03T20:11:12.892Z,41.59
2023-05-03T20:13:39.480Z,41.67
2023-05-03T20:16:05.960Z,42.24
2023-05-03T20:18:32.765Z,42.26
2023-05-03T20:20:59.630Z,42.15
2023-05-03T20:23:26.113Z,42.18
2023-05-03T20:25:52.898Z,41.97
2023-05-03T20:28:20.564Z,41.54
2023-05-03T20:30:47.048Z,41.52
2023-05-03T20:33:13.535Z,40.68
2023-05-03T20:35:40.034Z,41.46
2023-05-03T20:38:06.573Z,41.29
2023-05-03T20:40:33.724Z,41.33
2023-05-03T20:43:01.249Z,40.78
2023-05-03T20:45:27.956Z,41.27
2023-05-03T20:47:54.479Z,40.96
2023-05-03T20:50:21.114Z,40.44
2023-05-03T20:52:47.482Z,40.40
2023-05-03T20:55:13.883Z,40.08
2023-05-03T20:57:40.323Z,40.68
2023-05-03T21:00:06.932Z,40.51
2023-05-03T21:02:33.620Z,40.20
2023-05-03T21:05:00.223Z,40.88
2023-05-03T21:07:26.708Z,40.38
2023-05-03T21:09:53.152Z,40.70
2023-05-03T21:12:20.072Z,40.97
2023-05-03T21:14:46.661Z,40.88
2023-05-03T21:17:13.122Z,41.10
2023-05-03T21:19:39.510Z,41.00
2023-05-03T21:22:05.935Z,40.88
2023-05-03T21:24:32.514Z,41.23
2023-05-03T21:26:58.902Z,41.25
2023-05-03T21:29:25.296Z,41.26
2023-05-03T21:31:51.763Z,41.01
2023-05-03T21:34:18.242Z,40.76
2023-05-03T21:36:44.722Z,41.20
2023-05-03T21:39:12.164Z,40.79
2023-05-03T21:41:38.694Z,40.94
2023-05-03T21:44:05.224Z,40.82
2023-05-03T21:46:31.822Z,40.77
2023-05-03T21:48:58.284Z,40.63
2023-05-03T21:51:24.710Z,40.62
2023-05-03T21:53:51.152Z,40.67
2023-05-03T21:56:17.643Z,41.30
2023-05-03T21:58:45.089Z,42.04
2023-05-03T22:01:11.715Z,42.01
2023-05-03T22:03:38.419Z,41.86
2023-05-03T22:06:04.973Z,42.22
2023-05-03T22:08:31.732Z,42.64
2023-05-03T22:10:58.166Z,42.20
2023-05-03T22:13:24.612Z,42.25
2023-05-03T22:15:51.156Z,42.44
2023-05-03T22:18:17.762Z,42.57
2023-05-03T22:20:44.336Z,42.17
2023-05-03T22:23:10.739Z,41.91
2023-05-03T22:25:37.153Z,41.47
2023-05-03T22:28:03.539Z,41.49
2023-05-03T22:30:29.972Z,40.79
2023-05-03T22:32:56.428Z,41.50
2023-05-03T22:35:22.892Z,42.00
2023-05-03T22:37:49.451Z,41.58
2023-05-03T22:40:15.917Z,41.95
2023-05-03T22:42:42.393Z,41.88
2023-05-03T22:45:08.939Z,41.67
2023-05-03T22:47:35.811Z,41.49
2023-05-03T22:50:02.560Z,41.19
2023-05-03T22:52:29.311Z,42.39
2023-05-03T22:54:56.016Z,42.23
2023-05-03T22:57:22.463Z,41.91
2023-05-03T22:59:49.062Z,42.16
2023-05-03T23:02:15.511Z,42.55
2023-05-03T23:04:42.063Z,42.08
2023-05-03T23:07:08.731Z,41.74
2023-05-03T23:09:35.159Z,42.13
2023-05-03T23:12:01.508Z,43.01
2023-05-03T23:14:27.873Z,42.13
2023-05-03T23:16:54.407Z,42.92
2023-05-03T23:19:20.900Z,42.93
2023-05-03T23:21:47.446Z,42.56
2023-05-03T23:24:13.816Z,41.92
2023-05-03T23:26:40.302Z,41.63
2023-05-03T23:29:07.251Z,42.60
2023-05-03T23:31:34.686Z,44.21
2023-05-03T23:34:03.037Z,43.99
2023-05-03T23:36:29.449Z,43.09
2023-05-03T23:38:55.925Z,42.05
2023-05-03T23:41:22.378Z,42.42
2023-05-03T23:43:49.999Z,42.08
2023-05-03T23:46:16.546Z,42.39
2023-05-03T23:48:43.070Z,42.55
2023-05-03T23:51:09.469Z,41.89
2023-05-03T23:53:36.144Z,41.32
2023-05-03T23:56:02.551Z,41.89
2023-05-03T23:58:28.978Z,41.68
